Time;durP1;ratioP1;P1;durP2;ratioP2;P2;SDS_P1;SDS_P2;PMS_P1;PMS_P2;Temp;Humidity;BMP_temperature;BMP_pressure;BME280_temperature;BME280_humidity;BME280_pressure;Samples;Min_cycle;Max_cycle;Signal;HPM_P1;HPM_P2
2024/01/03 00:00:39;;;;;;;20.97;3.60;;;7.20;86.40;;;;;;5042185;28;20041;-76
2024/01/03 00:03:05;;;;;;;22.80;3.93;;;7.20;86.50;;;;;;5013875;28;20077;-79
2024/01/03 00:05:41;;;;;;;20.63;4.33;;;7.20;86.60;;;;;;5021045;28;20068;-74
2024/01/03 00:08:27;;;;;;;21.00;3.60;;;7.20;86.40;;;;;;5023391;28;20056;-79
2024/01/03 00:10:57;;;;;;;23.67;3.60;;;7.20;86.50;;;;;;5030648;28;20130;-77
2024/01/03 00:13:29;;;;;;;19.13;3.83;;;7.20;86.30;;;;;;5037432;28;20060;-75
2024/01/03 00:16:00;;;;;;;23.30;4.10;;;7.20;85.70;;;;;;4999071;28;20064;-77
2024/01/03 00:18:35;;;;;;;19.50;3.63;;;7.20;85.60;;;;;;5022499;28;20052;-76
2024/01/03 00:21:00;;;;;;;21.13;3.90;;;7.20;85.90;;;;;;5043639;28;20040;-77
2024/01/03 00:23:40;;;;;;;22.50;4.30;;;7.20;85.90;;;;;;5026548;28;20146;-76
2024/01/03 00:26:10;;;;;;;20.93;4.03;;;7.20;86.10;;;;;;5017951;28;20071;-76
2024/01/03 00:28:36;;;;;;;21.63;4.07;;;7.10;86.40;;;;;;5034598;28;20488;-77
2024/01/03 00:31:02;;;;;;;22.20;3.87;;;7.00;86.40;;;;;;5059375;28;20057;-77
2024/01/03 00:33:28;;;;;;;20.40;3.67;;;7.00;86.60;;;;;;5058425;28;20060;-77
2024/01/03 00:35:55;;;;;;;24.27;4.40;;;7.00;86.70;;;;;;5032404;28;20061;-78
2024/01/03 00:38:21;;;;;;;24.57;4.40;;;7.00;86.40;;;;;;5043795;28;20049;-77
2024/01/03 00:40:52;;;;;;;18.27;3.07;;;7.00;86.60;;;;;;5026149;28;20414;-77
2024/01/03 00:43:17;;;;;;;25.63;4.35;;;7.00;86.60;;;;;;5030054;28;20053;-82
2024/01/03 00:45:44;;;;;;;23.63;4.37;;;7.00;86.50;;;;;;5042323;28;20056;-77
2024/01/03 00:48:09;;;;;;;21.97;4.07;;;7.00;86.40;;;;;;5026456;28;20475;-77
2024/01/03 00:50:35;;;;;;;29.37;4.53;;;6.90;86.50;;;;;;5044522;28;20049;-79
2024/01/03 00:53:01;;;;;;;28.10;4.50;;;7.00;86.40;;;;;;5044984;28;20056;-76
2024/01/03 00:55:27;;;;;;;27.23;5.23;;;7.00;86.00;;;;;;5030246;28;20055;-77
2024/01/03 00:57:52;;;;;;;23.57;4.10;;;7.00;86.20;;;;;;5047060;28;20053;-77
2024/01/03 01:00:18;;;;;;;24.77;4.33;;;7.00;86.20;;;;;;5027779;28;20076;-77
2024/01/03 01:02:45;;;;;;;26.20;4.97;;;7.00;86.00;;;;;;5027681;28;20136;-78
2024/01/03 01:05:11;;;;;;;23.73;4.93;;;7.00;86.00;;;;;;5028397;28;20045;-78
2024/01/03 01:07:36;;;;;;;29.97;5.13;;;7.00;86.40;;;;;;5028340;28;20099;-76
2024/01/03 01:10:02;;;;;;;31.50;5.37;;;7.00;86.50;;;;;;5029842;28;20055;-77
2024/01/03 01:12:28;;;;;;;23.63;4.80;;;7.00;86.40;;;;;;5030065;28;20545;-77
2024/01/03 01:14:53;;;;;;;28.20;4.93;;;7.00;86.40;;;;;;5048242;28;20126;-80
2024/01/03 01:17:19;;;;;;;25.67;5.63;;;7.00;86.20;;;;;;5043280;28;20136;-76
2024/01/03 01:19:45;;;;;;;31.87;5.30;;;7.00;86.20;;;;;;5034737;28;20045;-79
2024/01/03 01:22:12;;;;;;;26.57;4.87;;;7.00;86.10;;;;;;5029290;28;20469;-78
2024/01/03 01:24:38;;;;;;;24.13;4.80;;;7.00;86.20;;;;;;5014503;28;20055;-79
2024/01/03 01:27:04;;;;;;;30.57;5.00;;;7.10;85.90;;;;;;5046139;28;20140;-78
2024/01/03 01:29:29;;;;;;;31.33;5.37;;;7.10;85.70;;;;;;5054805;28;20411;-79
2024/01/03 01:31:55;;;;;;;34.20;5.60;;;7.20;85.70;;;;;;5060256;28;20052;-76
2024/01/03 01:34:21;;;;;;;26.90;4.73;;;7.10;85.90;;;;;;5037746;28;20103;-78
2024/01/03 01:36:46;;;;;;;29.03;5.10;;;7.10;86.10;;;;;;5047917;28;20106;-77
2024/01/03 01:39:12;;;;;;;32.10;5.93;;;7.00;86.20;;;;;;5013960;28;20258;-77
2024/01/03 01:41:38;;;;;;;26.50;4.63;;;7.00;86.20;;;;;;5022893;28;20124;-76
2024/01/03 01:44:05;;;;;;;25.90;5.27;;;7.10;85.80;;;;;;5023618;28;20060;-76
2024/01/03 01:46:31;;;;;;;25.33;5.17;;;7.10;85.60;;;;;;5011512;28;20046;-77
2024/01/03 01:48:57;;;;;;;33.47;5.23;;;7.20;85.30;;;;;;5026830;28;20053;-77
2024/01/03 01:51:23;;;;;;;26.27;4.87;;;7.20;85.40;;;;;;5011527;28;20500;-78
2024/01/03 01:53:49;;;;;;;29.57;6.00;;;7.20;85.30;;;;;;5016798;28;20061;-76
2024/01/03 01:56:18;;;;;;;28.43;5.37;;;7.20;85.00;;;;;;5011784;28;20042;-77
2024/01/03 01:58:44;;;;;;;24.10;5.10;;;7.20;85.00;;;;;;5013114;28;20045;-79
2024/01/03 02:01:10;;;;;;;28.47;5.87;;;7.30;84.70;;;;;;5006820;28;20111;-78
2024/01/03 02:03:37;;;;;;;31.03;5.50;;;7.20;85.00;;;;;;5019073;28;20061;-76
2024/01/03 02:06:06;;;;;;;29.20;4.77;;;7.30;85.00;;;;;;5021455;28;20053;-79
2024/01/03 02:08:33;;;;;;;34.23;5.17;;;7.30;84.70;;;;;;5017560;28;20049;-75
2024/01/03 02:11:00;;;;;;;30.67;5.07;;;7.30;84.50;;;;;;5011676;28;20121;-77
2024/01/03 02:13:26;;;;;;;30.93;4.80;;;7.40;84.30;;;;;;5020796;28;20112;-77
2024/01/03 02:15:52;;;;;;;25.07;5.27;;;7.40;84.30;;;;;;5026876;28;20053;-76
2024/01/03 02:18:19;;;;;;;20.03;4.63;;;7.40;84.40;;;;;;5022505;28;20049;-77
2024/01/03 02:20:46;;;;;;;27.23;4.97;;;7.40;84.40;;;;;;5014118;28;20434;-79
2024/01/03 02:23:12;;;;;;;26.97;4.90;;;7.40;84.50;;;;;;5001206;28;20045;-77
2024/01/03 02:25:39;;;;;;;21.03;4.37;;;7.40;84.20;;;;;;5015314;28;20053;-76
2024/01/03 02:28:09;;;;;;;26.27;4.67;;;7.40;84.00;;;;;;5025542;28;20504;-75
2024/01/03 02:30:35;;;;;;;22.00;4.50;;;7.40;83.50;;;;;;5029589;28;20041;-76
2024/01/03 02:33:01;;;;;;;23.70;4.80;;;7.50;83.20;;;;;;5027436;28;20065;-78
2024/01/03 02:35:27;;;;;;;23.23;4.13;;;7.50;83.10;;;;;;5026127;28;20054;-76
2024/01/03 02:37:53;;;;;;;22.47;4.93;;;7.50;82.90;;;;;;5021214;28;20054;-77
2024/01/03 02:40:19;;;;;;;25.63;4.23;;;7.60;82.30;;;;;;5020866;28;20099;-77
2024/01/03 02:42:44;;;;;;;24.97;5.10;;;7.60;82.70;;;;;;5046644;28;20399;-77
2024/01/03 02:45:10;;;;;;;23.73;4.23;;;7.60;82.20;;;;;;5051752;28;20080;-78
2024/01/03 02:47:36;;;;;;;28.83;4.43;;;7.70;82.10;;;;;;5045746;28;20381;-78
2024/01/03 02:50:02;;;;;;;22.23;4.23;;;7.70;82.20;;;;;;5011007;28;20401;-77
2024/01/03 02:52:27;;;;;;;23.23;4.67;;;7.70;82.10;;;;;;5018896;28;20062;-75
2024/01/03 02:54:53;;;;;;;29.80;4.43;;;7.80;81.50;;;;;;5008268;28;20072;-76
2024/01/03 02:57:19;;;;;;;20.97;4.60;;;7.80;81.50;;;;;;5032217;28;20049;-78
2024/01/03 02:59:44;;;;;;;18.57;3.90;;;7.80;81.30;;;;;;5030654;28;20076;-76
2024/01/03 03:02:10;;;;;;;22.23;3.70;;;7.80;80.90;;;;;;5018817;28;20137;-79
2024/01/03 03:04:36;;;;;;;24.27;3.73;;;7.90;80.60;;;;;;5029322;28;20053;-76
2024/01/03 03:07:01;;;;;;;25.97;4.10;;;7.90;81.00;;;;;;5025318;28;20378;-78
2024/01/03 03:09:27;;;;;;;22.97;4.20;;;7.80;81.10;;;;;;5020881;28;20068;-77
2024/01/03 03:11:53;;;;;;;26.10;4.33;;;7.80;81.10;;;;;;5045148;28;20126;-76
2024/01/03 03:14:18;;;;;;;23.17;3.87;;;7.80;81.20;;;;;;5046228;28;20048;-79
2024/01/03 03:16:44;;;;;;;25.57;4.27;;;7.80;81.20;;;;;;5028794;28;20509;-77
2024/01/03 03:19:09;;;;;;;21.87;3.73;;;7.80;81.20;;;;;;5028892;28;20049;-77
2024/01/03 03:21:35;;;;;;;23.13;3.37;;;7.80;81.00;;;;;;5026407;28;20064;-78
2024/01/03 03:24:02;;;;;;;18.37;3.20;;;7.90;80.40;;;;;;5033851;28;20091;-76
2024/01/03 03:26:28;;;;;;;15.37;3.30;;;7.90;80.10;;;;;;5028322;28;20175;-78
2024/01/03 03:28:54;;;;;;;19.57;3.43;;;8.00;80.10;;;;;;5046187;28;20079;-79
2024/01/03 03:31:19;;;;;;;16.60;3.23;;;8.00;79.80;;;;;;5048538;28;20118;-75
2024/01/03 03:33:45;;;;;;;19.10;3.27;;;8.00;79.40;;;;;;5046985;28;20049;-77
2024/01/03 03:36:14;;;;;;;17.63;3.33;;;8.00;79.90;;;;;;5037675;28;20041;-79
2024/01/03 03:38:41;;;;;;;20.50;3.70;;;8.00;79.90;;;;;;5030163;28;20067;-75
2024/01/03 03:41:13;;;;;;;19.17;3.37;;;8.00;80.30;;;;;;5044531;28;20423;-77
2024/01/03 03:43:39;;;;;;;27.00;3.93;;;8.00;80.40;;;;;;5047661;28;20114;-77
2024/01/03 03:46:06;;;;;;;18.40;3.23;;;8.00;80.70;;;;;;5029804;28;20042;-76
2024/01/03 03:48:32;;;;;;;16.60;3.23;;;8.00;80.50;;;;;;5019391;28;20059;-76
2024/01/03 03:50:58;;;;;;;14.30;2.67;;;8.00;80.50;;;;;;5022128;28;20451;-76
2024/01/03 03:53:24;;;;;;;13.77;2.70;;;8.00;80.50;;;;;;5037035;28;20049;-76
2024/01/03 03:55:50;;;;;;;16.07;2.73;;;8.00;80.40;;;;;;5044665;28;20049;-76
2024/01/03 03:58:15;;;;;;;15.27;2.50;;;8.00;80.50;;;;;;5012818;28;20060;-76
2024/01/03 04:00:41;;;;;;;14.77;2.73;;;8.00;80.50;;;;;;5040932;28;20637;-75
2024/01/03 04:03:08;;;;;;;10.23;2.70;;;8.00;80.50;;;;;;5038794;28;21741;-77
2024/01/03 04:05:38;;;;;;;15.97;2.87;;;8.00;80.90;;;;;;5026886;28;20088;-76
2024/01/03 04:08:04;;;;;;;17.03;3.27;;;8.00;81.60;;;;;;5028108;28;20072;-75
2024/01/03 04:10:29;;;;;;;17.57;3.27;;;7.90;82.10;;;;;;5028488;28;20064;-75
2024/01/03 04:12:55;;;;;;;25.33;3.33;;;7.80;82.10;;;;;;5027092;28;20045;-75
2024/01/03 04:15:22;;;;;;;15.80;2.70;;;7.80;82.10;;;;;;5033022;28;20048;-75
2024/01/03 04:17:48;;;;;;;13.63;2.20;;;7.80;81.80;;;;;;5024031;28;20096;-76
2024/01/03 04:20:14;;;;;;;15.00;2.43;;;7.80;81.80;;;;;;5025366;28;20085;-78
2024/01/03 04:22:43;;;;;;;10.63;2.40;;;7.80;81.30;;;;;;5044367;28;20045;-74
2024/01/03 04:25:09;;;;;;;8.90;1.93;;;7.90;81.20;;;;;;5044327;28;20055;-75
2024/01/03 04:27:36;;;;;;;12.27;1.80;;;8.00;81.10;;;;;;5036984;28;20147;-75
2024/01/03 04:30:03;;;;;;;11.50;2.30;;;8.00;81.10;;;;;;5040668;28;20410;-77
2024/01/03 04:32:29;;;;;;;11.57;2.23;;;8.00;80.90;;;;;;5048109;28;20068;-76
2024/01/03 04:34:55;;;;;;;9.67;2.13;;;8.00;81.00;;;;;;5045726;28;20044;-74
2024/01/03 04:37:21;;;;;;;17.93;2.90;;;8.00;81.20;;;;;;5030089;28;20049;-74
2024/01/03 04:39:46;;;;;;;17.40;2.97;;;8.00;81.30;;;;;;5035717;28;20063;-75
2024/01/03 04:42:12;;;;;;;14.17;2.80;;;8.00;81.30;;;;;;5041938;28;20049;-76
2024/01/03 04:44:39;;;;;;;12.23;2.30;;;8.00;81.40;;;;;;5044707;28;20400;-75
2024/01/03 04:47:05;;;;;;;12.23;2.43;;;8.00;81.20;;;;;;5025160;28;20071;-76
2024/01/03 04:49:31;;;;;;;10.43;2.23;;;8.00;81.10;;;;;;5041210;28;20049;-74
2024/01/03 04:51:56;;;;;;;10.97;2.00;;;8.10;81.10;;;;;;5041758;28;20459;-74
2024/01/03 04:54:22;;;;;;;8.20;1.93;;;8.00;81.10;;;;;;5021244;28;20052;-74
2024/01/03 04:56:48;;;;;;;8.87;1.77;;;8.00;81.10;;;;;;5035066;28;20063;-75
2024/01/03 04:59:14;;;;;;;13.17;2.33;;;8.00;81.30;;;;;;5042783;28;20413;-75
2024/01/03 05:01:40;;;;;;;12.33;2.73;;;8.00;81.70;;;;;;5044290;28;20045;-75
2024/01/03 05:04:06;;;;;;;12.37;2.87;;;8.00;82.00;;;;;;5037941;28;20149;-75
2024/01/03 05:06:32;;;;;;;17.47;3.63;;;8.00;82.10;;;;;;5032350;28;20548;-75
2024/01/03 05:08:58;;;;;;;17.33;3.20;;;8.00;81.90;;;;;;5043463;28;20053;-75
2024/01/03 05:11:24;;;;;;;16.57;3.80;;;8.00;81.90;;;;;;5027056;28;20064;-74
2024/01/03 05:13:49;;;;;;;14.97;3.30;;;8.00;81.80;;;;;;5028010;28;20061;-75
2024/01/03 05:16:15;;;;;;;18.77;3.87;;;8.00;81.80;;;;;;5045053;28;20049;-75
2024/01/03 05:18:41;;;;;;;19.13;4.03;;;8.00;81.80;;;;;;5042013;28;20132;-75
2024/01/03 05:21:07;;;;;;;17.87;3.47;;;8.00;81.70;;;;;;5025735;28;26150;-75
2024/01/03 05:23:32;;;;;;;15.73;3.23;;;8.10;81.80;;;;;;5045095;28;20057;-77
2024/01/03 05:25:58;;;;;;;18.60;3.50;;;8.00;81.80;;;;;;5012145;28;20131;-75
2024/01/03 05:28:24;;;;;;;20.33;3.40;;;8.00;81.70;;;;;;5027157;28;20132;-76
2024/01/03 05:30:50;;;;;;;14.97;2.80;;;8.00;81.50;;;;;;5034058;28;20120;-77
2024/01/03 05:33:15;;;;;;;15.90;2.77;;;8.00;81.40;;;;;;5033483;28;20052;-76
2024/01/03 05:35:41;;;;;;;16.57;3.00;;;8.00;81.30;;;;;;5044095;28;20045;-75
2024/01/03 05:38:07;;;;;;;18.57;3.37;;;8.00;81.40;;;;;;5044094;28;20420;-77
2024/01/03 05:40:32;;;;;;;11.63;2.70;;;8.00;81.80;;;;;;5013013;28;20094;-75
2024/01/03 05:42:58;;;;;;;16.73;3.07;;;8.00;82.50;;;;;;5036550;28;20049;-76
2024/01/03 05:45:24;;;;;;;17.20;2.57;;;7.90;83.10;;;;;;5021607;28;20058;-75
2024/01/03 05:47:49;;;;;;;13.80;2.70;;;7.80;83.70;;;;;;5047176;28;20126;-76
2024/01/03 05:50:15;;;;;;;11.83;2.60;;;7.80;84.50;;;;;;5046918;28;20049;-76
2024/01/03 05:52:41;;;;;;;11.20;2.33;;;7.60;85.00;;;;;;5047219;28;20705;-76
2024/01/03 05:55:07;;;;;;;10.87;2.23;;;7.60;85.50;;;;;;5019895;28;20050;-76
2024/01/03 05:57:33;;;;;;;11.60;2.33;;;7.50;85.80;;;;;;5033635;28;20047;-76
2024/01/03 05:59:59;;;;;;;13.07;2.60;;;7.50;86.00;;;;;;5020343;28;20045;-76
2024/01/03 06:02:25;;;;;;;16.27;3.03;;;7.50;86.40;;;;;;5047143;28;20059;-75
2024/01/03 06:04:50;;;;;;;25.97;4.20;;;7.50;86.60;;;;;;5048005;28;20152;-75
2024/01/03 06:07:16;;;;;;;23.33;5.57;;;7.50;87.00;;;;;;5060265;28;21466;-75
2024/01/03 06:09:42;;;;;;;37.27;6.27;;;7.40;87.10;;;;;;5064224;28;20407;-75
2024/01/03 06:12:08;;;;;;;47.63;7.53;;;7.50;87.20;;;;;;5064384;28;20044;-76
2024/01/03 06:14:33;;;;;;;42.67;8.37;;;7.50;87.20;;;;;;5045016;28;20060;-75
2024/01/03 06:16:59;;;;;;;46.40;8.23;;;7.50;87.00;;;;;;5042787;28;20402;-75
2024/01/03 06:19:25;;;;;;;43.37;7.03;;;7.70;86.20;;;;;;5030012;28;20059;-76
2024/01/03 06:21:50;;;;;;;35.87;6.50;;;7.80;85.90;;;;;;5045322;28;20044;-77
2024/01/03 06:24:16;;;;;;;44.83;7.77;;;7.80;85.50;;;;;;5028607;28;20429;-75
2024/01/03 06:26:42;;;;;;;39.47;6.50;;;7.90;85.30;;;;;;5032059;28;20049;-76
2024/01/03 06:29:08;;;;;;;42.10;7.23;;;7.90;85.20;;;;;;5015509;28;20673;-74
2024/01/03 06:31:34;;;;;;;44.73;8.33;;;7.90;85.10;;;;;;5044515;28;20056;-75
2024/01/03 06:34:00;;;;;;;42.07;7.63;;;7.90;85.40;;;;;;5037783;28;20045;-75
2024/01/03 06:36:26;;;;;;;40.53;7.07;;;7.90;85.50;;;;;;5027370;28;20083;-75
2024/01/03 06:38:51;;;;;;;42.00;7.93;;;7.80;85.70;;;;;;5027539;28;20102;-78
2024/01/03 06:41:18;;;;;;;40.20;7.70;;;7.80;85.90;;;;;;5029346;28;20130;-75
2024/01/03 06:43:44;;;;;;;49.77;8.13;;;7.80;85.70;;;;;;5049794;28;20136;-76
2024/01/03 06:46:10;;;;;;;37.73;6.90;;;7.80;85.40;;;;;;5039330;28;20437;-74
2024/01/03 06:48:36;;;;;;;44.73;7.63;;;7.90;85.20;;;;;;5033279;28;20087;-75
2024/01/03 06:51:02;;;;;;;30.77;6.87;;;8.00;84.90;;;;;;5028224;28;20045;-74
2024/01/03 06:53:31;;;;;;;36.03;7.17;;;8.00;84.70;;;;;;5039840;28;20543;-77
2024/01/03 06:55:57;;;;;;;36.07;6.67;;;8.00;84.50;;;;;;5022308;28;20051;-75
2024/01/03 06:58:23;;;;;;;38.67;7.23;;;8.00;84.20;;;;;;5038661;28;20054;-75
2024/01/03 07:00:49;;;;;;;34.77;6.97;;;8.10;83.90;;;;;;5038687;28;20060;-73
2024/01/03 07:03:18;;;;;;;33.33;6.73;;;8.10;83.70;;;;;;5037959;28;20048;-76
2024/01/03 07:05:43;;;;;;;36.37;6.60;;;8.10;83.50;;;;;;5019168;28;20049;-74
2024/01/03 07:08:10;;;;;;;38.50;7.27;;;8.10;83.50;;;;;;5035982;28;20503;-75
2024/01/03 07:10:36;;;;;;;28.60;6.70;;;8.10;83.50;;;;;;5018163;28;20420;-73
2024/01/03 07:13:02;;;;;;;39.33;6.77;;;8.20;83.50;;;;;;5027287;28;20103;-76
2024/01/03 07:15:28;;;;;;;47.23;7.70;;;8.20;83.70;;;;;;5019683;28;20152;-74
2024/01/03 07:17:55;;;;;;;34.67;7.60;;;8.20;83.60;;;;;;5039253;28;20539;-77
2024/01/03 07:20:22;;;;;;;36.57;6.83;;;8.20;83.70;;;;;;5035086;28;20056;-74
2024/01/03 07:22:48;;;;;;;38.53;7.07;;;8.20;84.10;;;;;;5021752;28;20524;-75
2024/01/03 07:25:15;;;;;;;40.23;6.80;;;8.10;84.30;;;;;;5021168;28;20506;-76
2024/01/03 07:27:40;;;;;;;43.27;7.93;;;8.10;84.40;;;;;;5042740;28;20072;-75
2024/01/03 07:30:07;;;;;;;37.17;6.67;;;8.00;84.40;;;;;;5038243;28;20044;-75
2024/01/03 07:32:32;;;;;;;36.20;6.50;;;8.10;84.70;;;;;;5018401;28;20581;-75
2024/01/03 07:34:58;;;;;;;35.20;7.70;;;8.00;84.70;;;;;;5048208;28;20049;-76
2024/01/03 07:37:24;;;;;;;39.30;6.80;;;8.00;84.70;;;;;;5035791;28;20457;-76
2024/01/03 07:39:50;;;;;;;28.73;6.40;;;8.00;84.60;;;;;;5038208;28;20496;-75
2024/01/03 07:42:16;;;;;;;35.90;6.70;;;8.00;84.50;;;;;;5027609;28;20094;-74
2024/01/03 07:44:42;;;;;;;32.80;5.87;;;8.00;84.30;;;;;;5039238;28;20048;-76
2024/01/03 07:47:11;;;;;;;36.17;6.93;;;8.00;84.30;;;;;;5036166;28;20115;-75
2024/01/03 07:49:42;;;;;;;28.43;5.90;;;8.10;84.30;;;;;;5027216;28;20045;-75
2024/01/03 07:52:08;;;;;;;22.90;5.30;;;8.00;84.20;;;;;;5025763;28;20044;-75
2024/01/03 07:54:34;;;;;;;27.70;5.63;;;8.00;83.90;;;;;;5037301;28;20049;-75
2024/01/03 07:57:02;;;;;;;23.87;4.87;;;8.00;83.80;;;;;;5037887;28;20131;-75
2024/01/03 07:59:28;;;;;;;27.47;5.00;;;8.00;83.80;;;;;;5027411;28;20418;-75
2024/01/03 08:01:54;;;;;;;29.30;5.07;;;8.00;83.90;;;;;;5038784;28;20064;-76
2024/01/03 08:04:19;;;;;;;27.20;5.23;;;8.00;84.10;;;;;;5037500;28;20127;-75
2024/01/03 08:06:45;;;;;;;31.33;5.53;;;8.00;83.80;;;;;;5034884;28;20044;-75
2024/01/03 08:09:10;;;;;;;30.30;5.83;;;8.00;83.80;;;;;;5051742;28;20555;-75
2024/01/03 08:11:37;;;;;;;34.13;6.03;;;8.10;83.70;;;;;;5034892;28;20144;-76
2024/01/03 08:14:02;;;;;;;38.00;6.30;;;8.10;83.90;;;;;;5024738;28;20041;-76
2024/01/03 08:16:28;;;;;;;36.60;6.67;;;8.00;84.00;;;;;;5034019;28;20114;-75
2024/01/03 08:18:54;;;;;;;34.10;6.30;;;8.00;84.00;;;;;;5037653;28;20049;-75
2024/01/03 08:21:20;;;;;;;33.67;7.07;;;8.10;84.00;;;;;;5035030;28;20044;-76
2024/01/03 08:23:46;;;;;;;37.13;6.33;;;8.10;83.70;;;;;;5034666;28;20228;-74
2024/01/03 08:26:12;;;;;;;25.87;5.80;;;8.10;83.60;;;;;;5035179;28;20052;-74
2024/01/03 08:28:40;;;;;;;34.47;7.00;;;8.10;83.60;;;;;;5021666;28;20499;-76
2024/01/03 08:31:14;;;;;;;38.73;6.20;;;8.10;83.30;;;;;;5037652;28;20053;-74
2024/01/03 08:33:40;;;;;;;31.87;5.47;;;8.10;83.30;;;;;;5037754;28;20456;-77
2024/01/03 08:36:12;;;;;;;28.83;5.57;;;8.20;83.30;;;;;;5020786;28;20084;-73
2024/01/03 08:38:38;;;;;;;34.27;5.83;;;8.20;83.10;;;;;;5004635;28;20065;-75
2024/01/03 08:41:15;;;;;;;29.77;5.00;;;8.10;82.90;;;;;;5017753;28;20099;-74
2024/01/03 08:43:41;;;;;;;26.87;4.93;;;8.20;82.50;;;;;;5031807;28;20569;-76
2024/01/03 08:46:07;;;;;;;26.20;5.07;;;8.10;82.40;;;;;;5020954;28;20045;-75
2024/01/03 08:48:33;;;;;;;17.93;3.87;;;8.10;82.10;;;;;;5034188;28;20051;-74
2024/01/03 08:50:59;;;;;;;20.90;3.80;;;8.10;82.40;;;;;;5029435;28;20045;-75
2024/01/03 08:53:24;;;;;;;20.70;3.43;;;8.00;83.00;;;;;;5040236;28;20286;-75
2024/01/03 08:55:50;;;;;;;17.33;3.03;;;8.00;83.00;;;;;;5024540;28;20507;-75
2024/01/03 08:58:16;;;;;;;19.90;3.60;;;8.00;83.00;;;;;;5021294;28;20076;-75
2024/01/03 09:00:44;;;;;;;23.33;3.83;;;7.90;83.30;;;;;;5025114;28;20119;-75
2024/01/03 09:03:10;;;;;;;25.73;4.53;;;7.90;83.60;;;;;;5026557;28;20049;-76
2024/01/03 09:05:35;;;;;;;31.23;5.73;;;7.90;83.80;;;;;;5028463;28;20128;-74
2024/01/03 09:08:01;;;;;;;30.63;5.63;;;8.00;83.90;;;;;;5032416;28;20045;-74
2024/01/03 09:10:27;;;;;;;37.07;6.07;;;8.00;84.00;;;;;;5029202;28;20068;-75
2024/01/03 09:12:53;;;;;;;33.17;5.57;;;8.00;83.90;;;;;;5031193;28;20054;-77
2024/01/03 09:15:18;;;;;;;31.87;5.90;;;8.10;84.00;;;;;;5026717;28;20056;-77
2024/01/03 09:17:44;;;;;;;35.60;6.03;;;8.10;83.90;;;;;;5039968;28;20051;-74
2024/01/03 09:20:11;;;;;;;30.37;5.90;;;8.10;83.70;;;;;;5035509;28;20111;-76
2024/01/03 09:22:37;;;;;;;32.63;5.90;;;8.20;83.50;;;;;;5022497;28;20038;-75
2024/01/03 09:25:03;;;;;;;26.73;5.60;;;8.20;83.40;;;;;;5036473;28;20063;-76
2024/01/03 09:27:29;;;;;;;24.53;5.33;;;8.20;83.40;;;;;;5034641;28;20068;-74
2024/01/03 09:29:55;;;;;;;27.40;5.43;;;8.30;83.10;;;;;;5033777;28;20563;-74
2024/01/03 09:32:21;;;;;;;26.53;5.03;;;8.20;83.50;;;;;;5034485;28;20419;-73
2024/01/03 09:34:47;;;;;;;31.97;5.00;;;8.10;83.70;;;;;;5055789;28;20047;-75
2024/01/03 09:37:13;;;;;;;36.17;5.27;;;8.00;84.20;;;;;;5035091;28;20071;-74
2024/01/03 09:39:40;;;;;;;36.23;4.70;;;7.90;84.70;;;;;;5025777;28;20048;-74
2024/01/03 09:42:07;;;;;;;29.77;5.47;;;7.80;85.00;;;;;;5049153;28;20056;-76
2024/01/03 09:44:33;;;;;;;29.80;4.97;;;7.80;85.20;;;;;;5038172;28;20795;-75
2024/01/03 09:46:59;;;;;;;24.40;4.17;;;7.80;85.40;;;;;;5056537;28;20057;-73
2024/01/03 09:49:25;;;;;;;26.80;5.27;;;7.80;85.30;;;;;;5057349;28;20056;-76
2024/01/03 09:51:52;;;;;;;37.77;5.27;;;7.80;84.80;;;;;;5040953;28;20653;-76
2024/01/03 09:54:19;;;;;;;26.60;4.50;;;7.90;84.70;;;;;;5034683;28;20118;-74
2024/01/03 09:56:47;;;;;;;23.50;4.50;;;8.00;84.70;;;;;;5061098;28;20060;-75
2024/01/03 09:59:17;;;;;;;22.00;3.90;;;8.00;84.70;;;;;;5032394;28;20056;-75
2024/01/03 10:01:54;;;;;;;25.40;4.23;;;8.00;84.30;;;;;;5034359;28;20532;-75
2024/01/03 10:04:20;;;;;;;27.83;4.47;;;8.00;84.10;;;;;;5036165;28;20045;-76
2024/01/03 10:06:54;;;;;;;20.00;3.37;;;8.00;83.80;;;;;;5050072;28;20049;-76
2024/01/03 10:09:21;;;;;;;19.60;3.27;;;8.00;83.70;;;;;;5040480;28;20045;-75
2024/01/03 10:11:51;;;;;;;23.67;3.63;;;8.10;83.70;;;;;;5047408;28;20088;-74
2024/01/03 10:14:21;;;;;;;22.33;3.33;;;8.10;83.60;;;;;;5037946;28;20429;-76
2024/01/03 10:16:48;;;;;;;25.40;3.67;;;8.10;83.00;;;;;;5044043;28;20056;-75
2024/01/03 10:19:15;;;;;;;19.03;3.60;;;8.20;82.90;;;;;;5037012;28;20279;-76
2024/01/03 10:21:51;;;;;;;25.83;4.40;;;8.20;82.80;;;;;;5043389;28;20056;-75
2024/01/03 10:24:19;;;;;;;20.70;3.63;;;8.20;83.10;;;;;;5057550;28;20083;-77
2024/01/03 10:26:45;;;;;;;29.10;4.40;;;8.20;83.30;;;;;;5037358;28;20048;-76
2024/01/03 10:29:19;;;;;;;31.03;4.73;;;8.20;83.60;;;;;;5058184;28;20438;-75
2024/01/03 10:31:46;;;;;;;17.00;3.93;;;8.10;83.90;;;;;;5060597;28;20080;-75
2024/01/03 10:34:17;;;;;;;29.60;4.43;;;8.10;84.20;;;;;;5051677;28;20052;-76
2024/01/03 10:36:49;;;;;;;21.40;3.73;;;8.00;84.40;;;;;;5008608;28;20146;-74
2024/01/03 10:39:17;;;;;;;18.13;3.43;;;8.00;84.70;;;;;;5058081;28;20407;-74
2024/01/03 10:41:44;;;;;;;19.13;3.00;;;8.00;84.90;;;;;;5024661;28;20053;-74
2024/01/03 10:44:19;;;;;;;17.20;3.17;;;7.90;84.90;;;;;;5047403;28;20094;-78
2024/01/03 10:46:46;;;;;;;21.70;2.97;;;7.80;85.00;;;;;;5026552;28;20083;-76
2024/01/03 10:49:12;;;;;;;17.07;3.03;;;7.80;85.00;;;;;;5026408;28;20408;-76
2024/01/03 10:51:40;;;;;;;14.73;2.13;;;7.80;85.20;;;;;;5049682;28;20061;-75
2024/01/03 10:54:27;;;;;;;20.53;2.67;;;7.90;84.80;;;;;;5053551;28;20049;-74
2024/01/03 10:56:53;;;;;;;20.67;3.30;;;8.10;84.90;;;;;;5035191;28;20123;-74
2024/01/03 10:59:27;;;;;;;20.17;3.10;;;8.20;83.80;;;;;;5047235;28;20053;-75
2024/01/03 11:02:07;;;;;;;16.67;2.97;;;8.30;83.00;;;;;;5028268;28;20060;-78
2024/01/03 11:04:46;;;;;;;21.87;4.30;;;8.50;82.40;;;;;;5032303;28;20590;-74
2024/01/03 11:07:25;;;;;;;27.60;3.97;;;8.60;81.40;;;;;;5041678;28;20057;-75
2024/01/03 11:09:51;;;;;;;27.53;5.17;;;8.90;82.30;;;;;;5044983;28;20056;-75
2024/01/03 11:12:16;;;;;;;27.37;4.50;;;9.50;82.00;;;;;;5048567;28;20408;-75
2024/01/03 11:14:43;;;;;;;23.00;4.60;;;10.20;79.90;;;;;;5020262;28;20223;-75
2024/01/03 11:17:11;;;;;;;26.87;4.70;;;10.50;77.20;;;;;;5037082;28;20045;-76
2024/01/03 11:19:38;;;;;;;32.83;4.83;;;10.30;78.30;;;;;;5051090;28;20137;-75
2024/01/03 11:22:04;;;;;;;27.83;4.93;;;10.10;78.80;;;;;;5010216;28;20041;-76
2024/01/03 11:24:33;;;;;;;31.90;4.93;;;10.00;79.00;;;;;;5036336;28;20268;-75
2024/01/03 11:27:03;;;;;;;27.53;5.77;;;9.90;78.70;;;;;;5019695;28;20161;-75
2024/01/03 11:29:35;;;;;;;26.45;4.95;;;9.70;78.90;;;;;;5021833;28;20053;-75
2024/01/03 11:32:05;;;;;;;25.77;4.80;;;9.50;79.10;;;;;;5020173;28;20052;-76
2024/01/03 11:34:41;;;;;;;25.17;5.20;;;9.40;80.00;;;;;;5040852;28;20065;-76
2024/01/03 11:37:26;;;;;;;28.27;4.90;;;9.60;80.20;;;;;;5043094;28;20048;-76
2024/01/03 11:39:54;;;;;;;20.60;4.50;;;10.30;78.60;;;;;;5037068;28;20089;-76
2024/01/03 11:42:40;;;;;;;26.37;5.60;;;10.80;77.70;;;;;;5029362;28;20069;-75
2024/01/03 11:45:13;;;;;;;30.30;5.50;;;10.80;75.90;;;;;;5049733;28;20048;-74
2024/01/03 11:47:44;;;;;;;21.67;5.10;;;10.40;77.60;;;;;;5039937;28;20052;-75
2024/01/03 11:50:12;;;;;;;21.67;4.50;;;10.00;78.10;;;;;;5041886;28;20052;-74
2024/01/03 11:52:41;;;;;;;27.87;5.07;;;9.70;78.50;;;;;;5029661;28;20151;-75
2024/01/03 11:55:12;;;;;;;20.50;3.53;;;9.60;79.10;;;;;;5047957;28;20057;-75
2024/01/03 11:57:41;;;;;;;17.35;3.45;;;9.40;78.80;;;;;;5028775;28;20060;-73
2024/01/03 12:00:09;;;;;;;17.63;3.17;;;9.30;78.30;;;;;;5028451;28;20045;-75
2024/01/03 12:02:35;;;;;;;15.40;3.07;;;9.20;79.00;;;;;;5033435;28;20713;-75
2024/01/03 12:05:02;;;;;;;23.20;3.53;;;9.10;79.00;;;;;;5039659;28;20135;-75
2024/01/03 12:07:31;;;;;;;22.57;4.23;;;9.00;78.40;;;;;;5015640;28;20099;-75
2024/01/03 12:09:58;;;;;;;21.27;4.17;;;8.90;79.10;;;;;;5032879;28;20059;-74
2024/01/03 12:12:27;;;;;;;22.17;3.87;;;8.90;79.00;;;;;;5050124;28;20052;-74
2024/01/03 12:14:55;;;;;;;19.27;3.67;;;8.90;79.20;;;;;;5037053;28;20053;-74
2024/01/03 12:17:32;;;;;;;20.67;4.00;;;8.90;79.60;;;;;;5054824;28;20049;-77
2024/01/03 12:20:14;;;;;;;23.27;3.90;;;8.90;79.50;;;;;;5059098;28;20110;-75
2024/01/03 12:22:40;;;;;;;16.13;3.43;;;8.90;79.60;;;;;;5054593;28;20113;-75
2024/01/03 12:25:15;;;;;;;23.37;4.73;;;8.90;79.90;;;;;;5058997;28;20125;-74
2024/01/03 12:27:41;;;;;;;23.90;4.23;;;8.80;80.00;;;;;;5047167;28;20416;-74
2024/01/03 12:30:14;;;;;;;20.03;3.87;;;8.80;79.90;;;;;;5048243;28;20040;-74
2024/01/03 12:32:40;;;;;;;18.13;3.60;;;8.90;79.80;;;;;;5033886;28;20128;-74
2024/01/03 12:35:07;;;;;;;20.37;3.77;;;8.90;80.00;;;;;;5046121;28;20040;-74
2024/01/03 12:37:32;;;;;;;23.60;4.60;;;8.90;80.00;;;;;;5044105;28;20253;-73
2024/01/03 12:39:58;;;;;;;16.87;3.50;;;9.00;79.50;;;;;;5013705;28;20399;-74
2024/01/03 12:42:24;;;;;;;20.37;3.80;;;9.00;78.90;;;;;;5053932;28;20096;-74
2024/01/03 12:44:50;;;;;;;20.83;3.70;;;9.00;79.30;;;;;;5056137;28;20045;-75